Time;durP1;ratioP1;P1;durP2;ratioP2;P2;SDS_P1;SDS_P2;PMS_P1;PMS_P2;Temp;Humidity;BMP_temperature;BMP_pressure;BME280_temperature;BME280_humidity;BME280_pressure;Samples;Min_cycle;Max_cycle;Signal;HPM_P1;HPM_P2
2022/12/13 00:01:10;;;;;;;32.20;14.13;;;-1.20;1.00;;;;;;5045444;28;20185;-85
2022/12/13 00:03:35;;;;;;;27.20;14.45;;;-1.30;1.00;;;;;;5050338;28;20235;-85
2022/12/13 00:06:04;;;;;;;22.33;13.50;;;-1.30;99.90;;;;;;5048903;28;20670;-86
2022/12/13 00:08:30;;;;;;;25.73;13.23;;;-1.30;99.90;;;;;;5043927;28;20209;-85
2022/12/13 00:11:05;;;;;;;32.53;15.37;;;-1.40;1.00;;;;;;5048030;28;20182;-85
2022/12/13 00:13:31;;;;;;;32.67;16.27;;;-1.40;1.00;;;;;;5054486;28;20254;-84
2022/12/13 00:15:58;;;;;;;27.38;15.00;;;-1.40;1.00;;;;;;5051817;28;20668;-85
2022/12/13 00:18:25;;;;;;;33.17;16.52;;;-1.40;27.80;;;;;;5046453;28;20198;-87
2022/12/13 00:20:50;;;;;;;26.25;14.57;;;-1.50;99.90;;;;;;5054042;28;20182;-86
2022/12/13 00:23:16;;;;;;;33.10;14.97;;;-1.50;99.90;;;;;;5054665;28;20224;-86
2022/12/13 00:25:42;;;;;;;29.80;15.40;;;-1.50;1.00;;;;;;5059396;28;20202;-87
2022/12/13 00:28:08;;;;;;;32.43;15.83;;;-1.50;1.00;;;;;;5055657;28;20440;-86
2022/12/13 00:30:34;;;;;;;33.77;16.80;;;-1.50;1.00;;;;;;5058918;28;20196;-87
2022/12/13 00:32:59;;;;;;;27.63;14.82;;;-1.50;1.00;;;;;;5040009;28;20202;-85
2022/12/13 00:35:25;;;;;;;26.37;14.87;;;-1.50;10.10;;;;;;5038307;28;20189;-85
2022/12/13 00:37:50;;;;;;;30.33;14.33;;;-1.50;99.90;;;;;;5050187;28;20181;-85
2022/12/13 00:40:17;;;;;;;28.03;15.27;;;-1.50;99.90;;;;;;5051086;28;20178;-85
2022/12/13 00:42:42;;;;;;;30.27;14.60;;;-1.50;99.90;;;;;;5048054;28;20244;-86
2022/12/13 00:45:08;;;;;;;33.70;15.20;;;-1.50;99.90;;;;;;5049575;28;20182;-84
2022/12/13 00:47:34;;;;;;;33.00;16.93;;;-1.50;99.90;;;;;;5050025;28;20240;-85
2022/12/13 00:50:00;;;;;;;31.02;15.43;;;-1.50;99.90;;;;;;5049732;28;20435;-85
2022/12/13 00:52:25;;;;;;;29.93;16.50;;;-1.50;99.90;;;;;;5049548;28;20280;-85
2022/12/13 00:54:51;;;;;;;39.63;16.10;;;-1.50;1.00;;;;;;5050292;28;20650;-85
2022/12/13 00:57:16;;;;;;;28.00;13.93;;;-1.50;1.00;;;;;;5053335;28;20209;-85
2022/12/13 00:59:42;;;;;;;27.93;14.17;;;-1.50;99.90;;;;;;5052481;28;20182;-84
2022/12/13 01:02:07;;;;;;;26.50;15.27;;;-1.50;99.90;;;;;;5053176;28;20208;-85
2022/12/13 01:04:33;;;;;;;29.50;14.77;;;-1.50;99.90;;;;;;5039484;28;20179;-85
2022/12/13 01:06:58;;;;;;;26.90;14.63;;;-1.50;1.00;;;;;;5050685;28;20243;-86
2022/12/13 01:09:32;;;;;;;24.53;13.27;;;-1.50;1.00;;;;;;5047133;28;20190;-86
2022/12/13 01:12:00;;;;;;;24.52;14.23;;;-1.40;1.00;;;;;;5046470;28;20188;-85
2022/12/13 01:14:26;;;;;;;29.65;13.73;;;-1.40;1.00;;;;;;5046658;28;20891;-85
2022/12/13 01:16:55;;;;;;;24.50;13.88;;;-1.40;99.90;;;;;;5047651;28;20252;-85
2022/12/13 01:19:25;;;;;;;31.63;14.98;;;-1.50;1.00;;;;;;5041502;28;20232;-84
2022/12/13 01:22:02;;;;;;;27.92;14.70;;;-1.50;1.00;;;;;;5036941;28;20213;-86
2022/12/13 01:24:29;;;;;;;28.45;15.15;;;-1.60;1.00;;;;;;5039831;28;20562;-85
2022/12/13 01:26:56;;;;;;;26.60;13.95;;;-1.60;1.00;;;;;;5043048;28;20202;-85
2022/12/13 01:29:22;;;;;;;27.50;13.77;;;-1.60;99.90;;;;;;5045169;28;20204;-85
2022/12/13 01:31:48;;;;;;;28.60;14.60;;;-1.60;99.90;;;;;;5048900;28;20255;-85
2022/12/13 01:34:17;;;;;;;26.67;15.53;;;-1.60;99.90;;;;;;5047702;28;20210;-84
2022/12/13 01:36:44;;;;;;;33.90;14.32;;;-1.60;99.90;;;;;;5043471;28;20438;-85
2022/12/13 01:39:12;;;;;;;30.52;13.38;;;-1.60;76.40;;;;;;5048778;28;20188;-84
2022/12/13 01:41:38;;;;;;;36.30;14.50;;;-1.60;1.00;;;;;;5047555;28;20206;-85
2022/12/13 01:44:06;;;;;;;24.13;13.17;;;-1.60;1.00;;;;;;5042486;28;20185;-85
2022/12/13 01:46:35;;;;;;;32.50;14.23;;;-1.60;1.00;;;;;;5048657;28;20232;-85
2022/12/13 01:49:15;;;;;;;23.25;13.05;;;-1.70;1.00;;;;;;5044200;28;20185;-85
2022/12/13 01:51:53;;;;;;;24.15;14.02;;;-1.70;99.90;;;;;;5046038;28;20864;-85
2022/12/13 01:54:23;;;;;;;25.25;13.85;;;-1.70;99.90;;;;;;5045887;28;20205;-85
2022/12/13 01:56:53;;;;;;;25.08;12.85;;;-1.70;99.90;;;;;;5049831;28;20201;-85
2022/12/13 01:59:20;;;;;;;25.60;13.57;;;-1.80;99.90;;;;;;5041707;28;20187;-86
2022/12/13 02:01:49;;;;;;;24.30;13.60;;;-1.80;16.30;;;;;;5040344;28;20186;-86
2022/12/13 02:04:21;;;;;;;23.10;13.95;;;-1.80;1.00;;;;;;5051843;28;20189;-85
2022/12/13 02:06:48;;;;;;;30.17;14.02;;;-1.90;1.00;;;;;;5048738;28;20289;-85
2022/12/13 02:09:14;;;;;;;27.67;14.63;;;-1.90;1.00;;;;;;5050165;28;20185;-85
2022/12/13 02:11:42;;;;;;;26.93;14.90;;;-1.90;1.00;;;;;;5046364;28;20245;-83
2022/12/13 02:14:08;;;;;;;25.50;12.95;;;-1.90;1.00;;;;;;5044192;28;20432;-85
2022/12/13 02:16:51;;;;;;;28.25;12.20;;;-1.90;1.00;;;;;;5045047;28;20194;-85
2022/12/13 02:19:20;;;;;;;24.33;12.73;;;-2.00;1.00;;;;;;5041534;28;20268;-85
2022/12/13 02:21:45;;;;;;;31.67;13.27;;;-2.00;1.00;;;;;;5044702;28;20608;-85
2022/12/13 02:24:33;;;;;;;25.27;13.07;;;-2.00;1.00;;;;;;5048347;28;20216;-85
2022/12/13 02:27:07;;;;;;;28.52;13.68;;;-2.00;1.00;;;;;;5041055;28;20257;-85
2022/12/13 02:30:10;;;;;;;24.65;14.25;;;-2.00;99.90;;;;;;5040588;28;20184;-85
2022/12/13 02:33:06;;;;;;;32.35;13.65;;;-2.00;99.90;;;;;;5051176;28;20331;-86
2022/12/13 02:35:36;;;;;;;39.10;18.35;;;-2.00;1.00;;;;;;5043141;28;20220;-85
2022/12/13 02:38:30;;;;;;;28.30;16.08;;;-2.10;1.00;;;;;;5049227;28;20185;-87
2022/12/13 02:41:21;;;;;;;43.25;19.80;;;-2.10;1.00;;;;;;5050686;28;20181;-86
2022/12/13 02:44:11;;;;;;;37.15;17.83;;;-2.20;1.00;;;;;;5049360;28;20831;-85
2022/12/13 02:46:47;;;;;;;39.22;19.48;;;-2.20;1.00;;;;;;5045689;28;20222;-87
2022/12/13 02:49:15;;;;;;;38.88;19.98;;;-2.30;99.90;;;;;;5050630;28;20178;-85
2022/12/13 02:51:42;;;;;;;40.55;18.75;;;-2.30;1.00;;;;;;5048649;28;20249;-86
2022/12/13 02:54:08;;;;;;;47.17;20.80;;;-2.30;99.90;;;;;;5051418;28;20205;-86
2022/12/13 02:56:33;;;;;;;47.40;21.70;;;-2.30;99.90;;;;;;5059844;28;20265;-87
2022/12/13 02:59:02;;;;;;;40.27;19.60;;;-2.30;99.90;;;;;;5042077;28;20186;-85
2022/12/13 03:01:59;;;;;;;41.50;20.45;;;-2.30;1.00;;;;;;5055668;28;20197;-86
2022/12/13 03:04:32;;;;;;;42.42;21.92;;;-2.30;1.00;;;;;;5059314;28;20178;-87
2022/12/13 03:07:25;;;;;;;38.05;20.08;;;-2.30;1.00;;;;;;5054810;28;20292;-86
2022/12/13 03:10:11;;;;;;;38.70;19.63;;;-2.40;1.00;;;;;;5051011;28;20214;-86
2022/12/13 03:15:41;;;;;;;38.17;19.80;;;-2.40;1.00;;;;;;5048063;28;20236;-86
2022/12/13 03:18:14;;;;;;;41.22;23.10;;;-2.40;1.00;;;;;;5061445;28;20208;-86
2022/12/13 03:20:48;;;;;;;46.50;22.20;;;-2.40;1.00;;;;;;5058536;28;20190;-85
2022/12/13 03:23:16;;;;;;;41.55;20.48;;;-2.40;17.50;;;;;;5057470;28;20613;-86
2022/12/13 03:25:43;;;;;;;44.33;22.27;;;-2.40;50.40;;;;;;5051613;28;20209;-86
2022/12/13 03:28:08;;;;;;;44.38;22.48;;;-2.40;88.60;;;;;;5055618;28;20190;-86
2022/12/13 03:30:34;;;;;;;47.93;24.73;;;-2.50;99.90;;;;;;5054443;28;20735;-85
2022/12/13 03:33:00;;;;;;;43.50;24.30;;;-2.50;99.90;;;;;;5056082;28;20219;-86
2022/12/13 03:35:26;;;;;;;56.17;23.70;;;-2.50;99.90;;;;;;5056030;28;20446;-87
2022/12/13 03:37:52;;;;;;;46.45;22.35;;;-2.50;99.90;;;;;;5057231;28;20181;-86
2022/12/13 03:40:19;;;;;;;40.43;22.03;;;-2.50;99.90;;;;;;5054625;28;20177;-87
2022/12/13 03:42:46;;;;;;;45.97;23.08;;;-2.50;99.90;;;;;;5052743;28;20186;-86
2022/12/13 03:45:12;;;;;;;50.25;23.75;;;-2.50;99.90;;;;;;5062532;28;20174;-85
2022/12/13 03:47:37;;;;;;;45.33;24.47;;;-2.50;99.90;;;;;;5064422;28;20249;-86
2022/12/13 03:50:03;;;;;;;43.53;23.20;;;-2.50;99.90;;;;;;5059315;28;20430;-85
2022/12/13 03:52:29;;;;;;;56.45;27.17;;;-2.50;99.90;;;;;;5065888;28;20186;-86
2022/12/13 03:54:56;;;;;;;62.60;28.20;;;-2.50;99.90;;;;;;5063784;28;20205;-86
2022/12/13 03:57:21;;;;;;;57.88;28.50;;;-2.50;99.90;;;;;;5057694;28;20244;-86
2022/12/13 03:59:47;;;;;;;52.47;30.00;;;-2.60;99.90;;;;;;5055349;28;20185;-87
2022/12/13 04:02:12;;;;;;;58.97;27.63;;;-2.60;99.90;;;;;;5062784;28;20180;-86
2022/12/13 04:04:38;;;;;;;54.70;26.20;;;-2.60;99.90;;;;;;5062977;28;20203;-86
2022/12/13 04:07:03;;;;;;;70.27;29.33;;;-2.60;99.90;;;;;;5066969;28;20202;-86
2022/12/13 04:09:29;;;;;;;70.77;28.33;;;-2.60;99.90;;;;;;5057961;28;20276;-85
2022/12/13 04:14:38;;;;;;;58.60;27.50;;;-2.60;99.90;;;;;;5039380;28;20201;-85
2022/12/13 04:17:04;;;;;;;58.20;27.27;;;-2.60;99.90;;;;;;5060522;28;20193;-85
2022/12/13 04:19:29;;;;;;;54.40;27.40;;;-2.60;99.90;;;;;;5058651;28;20196;-85
2022/12/13 04:21:55;;;;;;;65.83;27.77;;;-2.60;99.90;;;;;;5059950;28;20178;-86
2022/12/13 04:24:21;;;;;;;49.40;24.80;;;-2.60;99.90;;;;;;5053089;28;20715;-86
2022/12/13 04:26:47;;;;;;;54.97;26.23;;;-2.60;99.90;;;;;;5051541;28;20209;-86
2022/12/13 04:29:12;;;;;;;64.87;26.70;;;-2.60;99.90;;;;;;5053767;28;20229;-85
2022/12/13 04:31:38;;;;;;;59.90;28.07;;;-2.60;99.90;;;;;;5047076;28;20661;-86
2022/12/13 04:34:03;;;;;;;52.00;25.33;;;-2.70;99.90;;;;;;5046513;28;20228;-85
2022/12/13 04:36:29;;;;;;;63.50;26.50;;;-2.70;99.90;;;;;;5049773;28;20194;-86
2022/12/13 04:38:55;;;;;;;67.13;27.33;;;-2.70;99.90;;;;;;5049988;28;20185;-86
2022/12/13 04:41:21;;;;;;;63.43;28.33;;;-2.70;99.90;;;;;;5053805;28;20197;-86
2022/12/13 04:43:52;;;;;;;59.13;27.77;;;-2.70;99.90;;;;;;5053877;28;20190;-85
2022/12/13 04:46:19;;;;;;;56.00;27.45;;;-2.70;99.90;;;;;;5051957;28;20216;-86
2022/12/13 04:48:44;;;;;;;57.42;29.75;;;-2.70;99.90;;;;;;5050032;28;20186;-86
2022/12/13 04:51:10;;;;;;;61.73;27.80;;;-2.80;99.90;;;;;;5050924;28;20192;-86
2022/12/13 04:53:35;;;;;;;68.33;26.50;;;-2.80;99.90;;;;;;5052176;28;20237;-87
2022/12/13 04:56:04;;;;;;;56.57;25.83;;;-2.80;99.90;;;;;;5060101;28;20202;-85
2022/12/13 04:58:30;;;;;;;62.92;30.75;;;-2.80;99.90;;;;;;5055230;28;20239;-86
2022/12/13 05:00:56;;;;;;;50.72;25.65;;;-2.90;99.90;;;;;;5059004;28;20182;-87
2022/12/13 05:03:22;;;;;;;60.13;27.10;;;-2.90;99.90;;;;;;5047694;28;20194;-85
2022/12/13 05:05:47;;;;;;;59.10;30.77;;;-2.90;99.90;;;;;;5049786;28;20197;-85
2022/12/13 05:08:13;;;;;;;62.37;30.00;;;-2.90;99.90;;;;;;5057205;28;20177;-86
2022/12/13 05:10:38;;;;;;;54.50;26.07;;;-3.00;99.90;;;;;;5052830;28;20182;-86
2022/12/13 05:13:05;;;;;;;61.20;27.67;;;-3.00;99.90;;;;;;5047977;28;20277;-85
2022/12/13 05:15:31;;;;;;;63.42;28.02;;;-3.00;99.90;;;;;;5053214;28;21915;-86
2022/12/13 05:18:01;;;;;;;58.40;25.67;;;-3.00;99.90;;;;;;5051946;28;20205;-86
2022/12/13 05:20:27;;;;;;;53.50;27.23;;;-3.10;99.90;;;;;;5051286;28;20446;-85
2022/12/13 05:22:55;;;;;;;61.03;26.10;;;-3.10;99.90;;;;;;5050027;28;20181;-86
2022/12/13 05:25:21;;;;;;;56.35;27.90;;;-3.10;99.90;;;;;;5043121;28;20670;-85
2022/12/13 05:27:47;;;;;;;72.27;31.97;;;-3.10;99.90;;;;;;5048537;28;20244;-85
2022/12/13 05:30:13;;;;;;;62.70;28.03;;;-3.20;99.90;;;;;;5050029;28;20193;-86
2022/12/13 05:32:38;;;;;;;62.40;24.98;;;-3.20;99.90;;;;;;5049121;28;20189;-87
2022/12/13 05:35:04;;;;;;;69.37;29.90;;;-3.20;99.90;;;;;;5051812;28;20186;-86
2022/12/13 05:37:30;;;;;;;63.90;26.80;;;-3.20;99.90;;;;;;5052006;28;20293;-84
2022/12/13 05:39:56;;;;;;;66.47;29.38;;;-3.20;99.90;;;;;;5058079;28;20526;-85
2022/12/13 05:42:21;;;;;;;61.63;27.37;;;-3.20;99.90;;;;;;5054747;28;20214;-86
2022/12/13 05:44:47;;;;;;;63.40;29.87;;;-3.30;99.90;;;;;;5049147;28;20212;-86
2022/12/13 05:47:12;;;;;;;70.27;30.00;;;-3.30;99.90;;;;;;5051671;28;20870;-86
2022/12/13 05:49:38;;;;;;;63.07;27.43;;;-3.30;99.90;;;;;;5054519;28;20185;-85
2022/12/13 05:52:03;;;;;;;57.33;26.67;;;-3.30;99.90;;;;;;5052428;28;20242;-85
2022/12/13 05:54:29;;;;;;;63.63;29.30;;;-3.40;99.90;;;;;;5047043;28;20288;-86
2022/12/13 05:56:54;;;;;;;45.63;26.67;;;-3.40;99.90;;;;;;5049794;28;20198;-86
2022/12/13 05:59:20;;;;;;;72.17;33.73;;;-3.40;99.90;;;;;;5055290;28;20271;-86
2022/12/13 06:01:45;;;;;;;56.87;25.43;;;-3.30;99.90;;;;;;5054757;28;20437;-86
2022/12/13 06:04:11;;;;;;;64.93;29.40;;;-3.30;99.90;;;;;;5052027;28;20174;-86
2022/12/13 06:06:37;;;;;;;73.45;30.58;;;-3.30;99.90;;;;;;5057318;28;20256;-86
2022/12/13 06:09:03;;;;;;;86.10;31.90;;;-3.30;99.90;;;;;;5054502;28;20185;-86
2022/12/13 06:11:28;;;;;;;81.40;34.73;;;-3.30;1.00;;;;;;5050213;28;20194;-86
2022/12/13 06:13:54;;;;;;;75.90;35.47;;;-3.20;1.00;;;;;;5048737;28;20280;-86
2022/12/13 06:16:19;;;;;;;87.27;32.40;;;-3.20;1.00;;;;;;5046258;28;20209;-87
2022/12/13 06:18:45;;;;;;;67.37;29.47;;;-3.20;1.00;;;;;;5051562;28;20174;-86
2022/12/13 06:21:11;;;;;;;91.47;39.90;;;-3.20;1.00;;;;;;5049520;28;20175;-86
2022/12/13 06:23:36;;;;;;;79.00;35.87;;;-3.20;1.00;;;;;;5051194;28;20183;-86
2022/12/13 06:26:05;;;;;;;90.00;34.37;;;-3.20;1.00;;;;;;5056336;28;20202;-86
2022/12/13 06:28:30;;;;;;;71.40;31.08;;;-3.10;1.00;;;;;;5053214;28;20272;-86
2022/12/13 06:31:02;;;;;;;75.65;34.22;;;-3.10;1.00;;;;;;5054732;28;20232;-86
2022/12/13 06:33:28;;;;;;;91.88;36.53;;;-3.10;1.00;;;;;;5043454;28;20211;-85
2022/12/13 06:35:57;;;;;;;84.20;36.08;;;-3.10;1.00;;;;;;5052425;28;20202;-87
2022/12/13 06:38:24;;;;;;;84.55;38.33;;;-3.10;1.00;;;;;;5046870;28;20211;-85
2022/12/13 06:40:50;;;;;;;82.13;36.40;;;-3.10;1.00;;;;;;5057324;28;20185;-86
2022/12/13 06:43:15;;;;;;;83.30;37.03;;;-3.10;1.00;;;;;;5054466;28;20259;-86
2022/12/13 06:45:41;;;;;;;76.73;34.33;;;-3.10;1.00;;;;;;5053347;28;20214;-86
2022/12/13 06:48:06;;;;;;;77.00;32.60;;;-3.20;1.00;;;;;;5042354;28;20244;-84
2022/12/13 06:50:32;;;;;;;79.77;35.90;;;-3.20;1.00;;;;;;5042115;28;20186;-85
2022/12/13 06:52:57;;;;;;;74.80;31.40;;;-3.20;1.00;;;;;;5040398;28;20261;-86
2022/12/13 06:55:23;;;;;;;84.30;34.67;;;-3.20;1.00;;;;;;5042038;28;21809;-87
2022/12/13 06:57:48;;;;;;;77.83;36.27;;;-3.20;1.00;;;;;;5045799;28;20193;-87
2022/12/13 07:00:14;;;;;;;76.00;32.50;;;-3.20;1.00;;;;;;5053009;28;20180;-87
2022/12/13 07:02:40;;;;;;;85.38;34.35;;;-3.20;1.00;;;;;;5045209;28;20186;-88
2022/12/13 07:05:06;;;;;;;77.60;31.67;;;-3.30;1.00;;;;;;5040090;28;20188;-87
2022/12/13 07:07:31;;;;;;;73.68;34.22;;;-3.30;1.00;;;;;;5043538;28;20244;-86
2022/12/13 07:09:57;;;;;;;67.90;32.30;;;-3.30;1.00;;;;;;5050994;28;20170;-86
2022/12/13 07:12:23;;;;;;;78.13;34.83;;;-3.30;1.00;;;;;;5054451;28;20228;-87
2022/12/13 07:14:48;;;;;;;77.47;36.07;;;-3.30;1.00;;;;;;5052636;28;20210;-85
2022/12/13 07:17:14;;;;;;;73.90;31.13;;;-3.30;1.00;;;;;;5049935;28;20263;-86
2022/12/13 07:19:39;;;;;;;84.77;35.20;;;-3.40;1.00;;;;;;5050380;28;20246;-86
2022/12/13 07:22:05;;;;;;;82.00;34.13;;;-3.40;1.00;;;;;;5046306;28;20280;-86
2022/12/13 07:24:31;;;;;;;83.77;30.37;;;-3.40;1.00;;;;;;5050839;28;20197;-86
2022/12/13 07:26:56;;;;;;;84.10;36.90;;;-3.30;1.00;;;;;;5048166;28;20209;-84
2022/12/13 07:29:22;;;;;;;84.87;40.47;;;-3.10;1.00;;;;;;5048840;28;20428;-86
2022/12/13 07:31:47;;;;;;;73.70;35.50;;;-3.00;1.00;;;;;;5049810;28;20213;-84
2022/12/13 07:34:13;;;;;;;65.63;28.97;;;-3.00;1.00;;;;;;5040173;28;20281;-85
2022/12/13 07:36:38;;;;;;;63.27;28.40;;;-3.00;1.00;;;;;;5049888;28;20217;-87
2022/12/13 07:39:04;;;;;;;57.23;28.47;;;-2.90;1.00;;;;;;5053420;28;20216;-86
2022/12/13 07:41:29;;;;;;;57.20;25.83;;;-2.90;99.90;;;;;;5055487;28;20186;-85
2022/12/13 07:43:55;;;;;;;60.73;26.07;;;-2.90;99.90;;;;;;5054702;28;20258;-85
2022/12/13 07:46:21;;;;;;;53.47;23.90;;;-2.90;99.90;;;;;;5056168;28;20215;-87
2022/12/13 07:48:47;;;;;;;52.05;24.63;;;-2.90;99.90;;;;;;5058971;28;20192;-86
2022/12/13 07:51:13;;;;;;;54.47;23.57;;;-2.80;99.90;;;;;;5053892;28;20717;-86
2022/12/13 07:53:39;;;;;;;57.40;25.80;;;-2.80;99.90;;;;;;5044903;28;20197;-85
2022/12/13 07:56:07;;;;;;;62.80;27.80;;;-2.80;99.90;;;;;;5051644;28;20943;-86
2022/12/13 07:58:33;;;;;;;56.08;28.05;;;-2.70;99.90;;;;;;5050623;28;20185;-85
2022/12/13 08:01:05;;;;;;;54.53;27.60;;;-2.60;53.50;;;;;;5052945;28;20683;-86
2022/12/13 08:03:31;;;;;;;51.47;25.90;;;-2.60;1.00;;;;;;5050944;28;20790;-87
2022/12/13 08:06:06;;;;;;;59.05;25.23;;;-2.50;1.00;;;;;;5051310;28;20267;-86
2022/12/13 08:08:32;;;;;;;51.20;24.00;;;-2.40;1.00;;;;;;5051029;28;20188;-88
2022/12/13 08:11:02;;;;;;;55.97;23.33;;;-2.30;99.90;;;;;;5053293;28;20722;-86
2022/12/13 08:13:28;;;;;;;50.55;23.00;;;-2.20;99.90;;;;;;5055082;28;20719;-86
2022/12/13 08:16:02;;;;;;;66.93;28.33;;;-2.10;99.90;;;;;;5055184;28;20201;-86
2022/12/13 08:18:38;;;;;;;51.53;25.70;;;-1.90;38.20;;;;;;5057145;28;20531;-86
2022/12/13 08:21:06;;;;;;;54.72;26.40;;;-1.70;1.00;;;;;;5069703;28;20177;-87
2022/12/13 08:23:32;;;;;;;50.75;24.40;;;-1.30;1.00;;;;;;5054258;28;20550;-86
2022/12/13 08:25:59;;;;;;;47.75;22.48;;;-0.60;99.90;;;;;;5049810;28;20698;-84
2022/12/13 08:28:25;;;;;;;48.28;22.35;;;0.00;1.00;;;;;;5049741;28;20303;-87
2022/12/13 08:30:52;;;;;;;39.97;19.80;;;0.40;99.90;;;;;;5052905;28;20190;-85
2022/12/13 08:33:18;;;;;;;40.40;20.02;;;0.50;1.00;;;;;;5048847;28;20208;-86
2022/12/13 08:35:43;;;;;;;42.20;21.52;;;0.60;1.00;;;;;;5053882;28;20259;-87
2022/12/13 08:38:09;;;;;;;42.33;21.27;;;0.60;99.90;;;;;;5051608;28;20178;-86
2022/12/13 08:40:36;;;;;;;44.55;19.55;;;0.60;99.90;;;;;;5058185;28;20235;-86
2022/12/13 08:43:02;;;;;;;46.35;19.80;;;0.60;99.90;;;;;;5052070;28;20215;-85
2022/12/13 08:45:28;;;;;;;44.20;22.38;;;0.40;99.90;;;;;;5045768;28;20231;-86
2022/12/13 08:47:56;;;;;;;39.20;17.43;;;0.20;99.90;;;;;;5052258;28;20194;-86
2022/12/13 08:50:21;;;;;;;35.33;20.65;;;0.10;99.90;;;;;;5052773;28;20227;-86
2022/12/13 08:52:47;;;;;;;32.90;17.27;;;0.20;99.90;;;;;;5053727;28;20189;-86
2022/12/13 08:55:14;;;;;;;42.07;20.47;;;0.10;99.90;;;;;;5057399;28;20657;-86
2022/12/13 08:57:41;;;;;;;38.05;18.63;;;0.00;99.90;;;;;;5055026;28;20581;-87
2022/12/13 09:00:10;;;;;;;35.97;18.10;;;0.10;99.90;;;;;;5053780;28;20182;-87
2022/12/13 09:02:36;;;;;;;37.45;18.48;;;0.20;99.90;;;;;;5038923;28;20674;-85
2022/12/13 09:05:02;;;;;;;37.42;17.20;;;0.30;99.90;;;;;;5054638;28;20174;-86
2022/12/13 09:07:28;;;;;;;38.60;21.95;;;0.40;99.90;;;;;;5053282;28;20210;-86
2022/12/13 09:09:53;;;;;;;37.27;18.23;;;0.40;99.90;;;;;;5057379;28;20188;-86
2022/12/13 09:12:19;;;;;;;33.73;16.70;;;0.50;99.90;;;;;;5050638;28;20435;-86
2022/12/13 09:14:45;;;;;;;41.23;18.90;;;0.60;99.90;;;;;;5053990;28;20297;-88
2022/12/13 09:17:13;;;;;;;36.72;17.33;;;0.80;99.90;;;;;;5054431;28;20688;-86
2022/12/13 09:19:39;;;;;;;40.47;20.35;;;0.90;55.20;;;;;;5040713;28;20190;-86
2022/12/13 09:22:04;;;;;;;41.60;20.50;;;1.00;1.00;;;;;;5049495;28;20235;-86
2022/12/13 09:24:33;;;;;;;36.47;19.33;;;1.10;1.00;;;;;;5048243;28;20198;-86
2022/12/13 09:26:58;;;;;;;38.70;20.80;;;1.20;1.00;;;;;;5045663;28;20205;-86
2022/12/13 09:29:24;;;;;;;35.90;20.43;;;1.30;1.00;;;;;;5052860;28;20178;-87
2022/12/13 09:31:50;;;;;;;31.53;17.20;;;1.40;1.00;;;;;;5050572;28;20201;-86
2022/12/13 09:34:15;;;;;;;37.47;20.27;;;1.50;1.00;;;;;;5053435;28;20247;-86
2022/12/13 09:36:41;;;;;;;26.90;16.93;;;1.70;1.00;;;;;;5045863;28;20837;-86
2022/12/13 09:39:08;;;;;;;30.37;18.20;;;1.80;1.00;;;;;;5052979;28;20174;-87
2022/12/13 09:41:41;;;;;;;42.75;17.15;;;1.90;1.00;;;;;;5050859;28;20185;-87
2022/12/13 09:44:17;;;;;;;38.10;19.67;;;2.00;1.00;;;;;;5037180;28;20615;-87
2022/12/13 09:46:45;;;;;;;37.70;19.15;;;2.10;1.00;;;;;;5048230;28;20212;-87
2022/12/13 09:49:38;;;;;;;32.40;18.38;;;2.00;1.00;;;;;;5045826;28;20665;-86
2022/12/13 09:52:13;;;;;;;33.67;17.83;;;1.90;1.00;;;;;;5044395;28;20327;-86
2022/12/13 09:54:39;;;;;;;34.28;18.63;;;1.90;1.00;;;;;;5041154;28;20212;-86
2022/12/13 09:57:18;;;;;;;37.42;20.58;;;1.80;1.00;;;;;;5052328;28;20201;-87
2022/12/13 09:59:44;;;;;;;30.05;16.70;;;1.90;1.00;;;;;;5051204;28;20197;-87
2022/12/13 10:02:28;;;;;;;33.53;19.60;;;1.90;1.00;;;;;;5053089;28;20177;-87
2022/12/13 10:05:08;;;;;;;26.02;16.23;;;1.80;1.00;;;;;;5050400;28;20192;-86
2022/12/13 10:07:34;;;;;;;35.35;19.00;;;1.80;1.00;;;;;;5052855;28;20695;-86
2022/12/13 10:10:02;;;;;;;31.33;18.17;;;1.90;1.00;;;;;;5048023;28;20557;-86
2022/12/13 10:12:28;;;;;;;32.05;18.60;;;1.90;1.00;;;;;;5052777;28;20723;-86
2022/12/13 10:14:59;;;;;;;34.83;18.80;;;1.80;1.00;;;;;;5047313;28;20213;-86
2022/12/13 10:17:30;;;;;;;33.25;19.77;;;1.80;1.00;;;;;;5053137;28;20950;-86
2022/12/13 10:19:56;;;;;;;38.45;19.67;;;1.70;1.00;;;;;;5050208;28;20188;-83
2022/12/13 10:22:22;;;;;;;28.03;15.97;;;1.70;1.00;;;;;;5053205;28;20684;-86
2022/12/13 10:25:02;;;;;;;34.53;22.17;;;1.60;1.00;;;;;;5038101;28;20460;-88
2022/12/13 10:27:35;;;;;;;32.10;17.30;;;1.60;1.00;;;;;;5045635;28;20205;-87
2022/12/13 10:30:12;;;;;;;39.92;20.20;;;1.60;1.00;;;;;;5048818;28;20239;-86
2022/12/13 10:33:02;;;;;;;35.30;17.88;;;1.50;1.00;;;;;;5049974;28;20193;-86
2022/12/13 10:35:31;;;;;;;30.08;15.93;;;1.60;1.00;;;;;;5053922;28;20201;-86
2022/12/13 10:38:00;;;;;;;30.35;17.95;;;1.50;1.00;;;;;;5054790;28;20220;-86
2022/12/13 10:40:42;;;;;;;28.35;15.95;;;1.50;1.00;;;;;;5051939;28;20220;-85
2022/12/13 10:43:16;;;;;;;31.42;16.40;;;1.50;1.00;;;;;;5043639;28;20537;-86
2022/12/13 10:45:58;;;;;;;34.00;20.45;;;1.50;1.00;;;;;;5050523;28;20202;-86
2022/12/13 10:48:33;;;;;;;32.78;18.98;;;1.60;1.00;;;;;;5032258;28;22218;-85
2022/12/13 10:51:08;;;;;;;31.45;16.38;;;1.70;1.00;;;;;;5047962;28;20192;-86
2022/12/13 10:53:57;;;;;;;33.33;16.73;;;1.80;1.00;;;;;;5045160;28;20213;-88
2022/12/13 10:56:58;;;;;;;38.78;19.67;;;1.80;1.00;;;;;;5047024;28;20224;-86
2022/12/13 10:59:43;;;;;;;30.90;17.65;;;1.70;1.00;;;;;;5051517;28;20615;-86
2022/12/13 11:02:26;;;;;;;32.67;21.90;;;1.70;1.00;;;;;;5045218;28;20544;-86
2022/12/13 11:04:57;;;;;;;35.67;17.17;;;1.70;1.00;;;;;;5051045;28;20181;-84
2022/12/13 11:07:32;;;;;;;28.13;17.85;;;1.70;1.00;;;;;;5039365;28;20210;-88
2022/12/13 11:10:20;;;;;;;35.33;20.80;;;1.60;1.00;;;;;;5055096;28;20268;-86
2022/12/13 11:12:46;;;;;;;35.95;21.80;;;1.50;1.00;;;;;;5042672;28;20190;-86
2022/12/13 11:15:25;;;;;;;35.42;19.77;;;1.50;1.00;;;;;;5042096;28;20196;-86
2022/12/13 11:17:54;;;;;;;28.58;17.98;;;1.40;1.00;;;;;;5041178;28;20555;-86
2022/12/13 11:20:27;;;;;;;28.20;16.30;;;1.40;1.00;;;;;;5045282;28;20193;-86
2022/12/13 11:23:22;;;;;;;33.97;20.05;;;1.50;1.00;;;;;;5043266;28;20552;-86
2022/12/13 11:25:59;;;;;;;33.83;19.40;;;1.80;1.00;;;;;;5038899;28;20278;-86
2022/12/13 11:29:08;;;;;;;38.85;24.98;;;2.40;1.00;;;;;;5048306;28;20197;-83
2022/12/13 11:31:58;;;;;;;32.03;18.73;;;3.70;1.00;;;;;;5046820;28;20604;-83
2022/12/13 11:34:48;;;;;;;29.42;17.40;;;4.50;99.90;;;;;;5048402;28;20267;-83
2022/12/13 11:37:31;;;;;;;31.30;17.88;;;4.80;99.90;;;;;;5037373;28;20213;-85
2022/12/13 11:40:23;;;;;;;28.30;16.83;;;5.00;99.90;;;;;;5043314;28;20182;-83
2022/12/13 11:42:54;;;;;;;29.80;20.07;;;5.60;99.90;;;;;;5040832;28;20205;-84
2022/12/13 11:45:36;;;;;;;26.30;16.70;;;6.30;99.90;;;;;;5046783;28;20442;-84
2022/12/13 11:48:08;;;;;;;27.87;18.50;;;7.40;99.90;;;;;;5062931;28;20472;-85
2022/12/13 11:50:55;;;;;;;24.73;16.90;;;8.60;99.90;;;;;;5048004;28;20434;-86
2022/12/13 11:53:33;;;;;;;30.23;18.20;;;9.20;99.90;;;;;;5046512;28;20485;-83
2022/12/13 11:56:11;;;;;;;28.27;18.07;;;9.70;99.90;;;;;;5049067;28;20454;-84
2022/12/13 11:59:06;;;;;;;27.70;17.93;;;9.90;99.90;;;;;;5047937;28;20534;-84
2022/12/13 12:01:42;;;;;;;36.30;24.80;;;10.10;99.90;;;;;;5050362;28;20957;-85
2022/12/13 12:04:30;;;;;;;23.40;17.67;;;9.70;99.90;;;;;;5045695;28;20435;-85
2022/12/13 12:07:05;;;;;;;28.90;15.70;;;8.90;99.90;;;;;;5035182;28;20455;-84
2022/12/13 12:13:39;;;;;;;27.10;16.70;;;8.60;99.90;;;;;;5034980;28;20501;-86
2022/12/13 12:16:21;;;;;;;27.33;18.23;;;8.40;99.90;;;;;;5036381;28;20827;-86
2022/12/13 12:18:49;;;;;;;27.30;17.57;;;7.60;99.90;;;;;;5041301;28;20859;-85
2022/12/13 12:21:27;;;;;;;29.23;15.47;;;7.00;99.90;;;;;;5042335;28;20439;-86
2022/12/13 12:24:11;;;;;;;22.50;14.97;;;6.60;99.90;;;;;;5044656;28;20958;-84
2022/12/13 12:27:18;;;;;;;27.02;16.80;;;6.30;99.90;;;;;;5038528;28;20460;-84
2022/12/13 12:30:14;;;;;;;26.13;16.10;;;5.80;99.90;;;;;;5046747;28;20186;-84
2022/12/13 12:32:51;;;;;;;25.88;14.60;;;5.20;99.90;;;;;;5044073;28;20206;-84
2022/12/13 12:35:37;;;;;;;24.88;16.10;;;4.60;99.90;;;;;;5045106;28;20637;-84
2022/12/13 12:38:32;;;;;;;26.25;15.18;;;4.40;99.90;;;;;;5050032;28;20217;-84
2022/12/13 12:41:41;;;;;;;25.45;15.80;;;4.50;99.90;;;;;;5038725;28;20563;-85
2022/12/13 12:44:20;;;;;;;25.20;14.50;;;4.40;99.90;;;;;;5036098;28;20697;-85
2022/12/13 12:46:55;;;;;;;25.45;14.90;;;4.40;99.90;;;;;;5057184;28;20603;-84
2022/12/13 12:49:39;;;;;;;23.85;13.35;;;4.60;99.90;;;;;;5050809;28;20185;-84
2022/12/13 12:52:23;;;;;;;23.35;14.10;;;4.90;99.90;;;;;;5041480;28;20190;-85
2022/12/13 12:55:02;;;;;;;22.05;13.93;;;5.00;99.90;;;;;;5041331;28;20185;-84
2022/12/13 12:57:42;;;;;;;24.10;15.57;;;5.10;99.90;;;;;;5041454;28;20205;-84
2022/12/13 13:00:10;;;;;;;23.00;13.45;;;5.00;99.90;;;;;;5044376;28;20547;-86
2022/12/13 13:02:40;;;;;;;29.48;15.10;;;4.90;99.90;;;;;;5035177;28;20247;-85